Time;durP1;ratioP1;P1;durP2;ratioP2;P2;SDS_P1;SDS_P2;PMS_P1;PMS_P2;Temp;Humidity;BMP_temperature;BMP_pressure;BME280_temperature;BME280_humidity;BME280_pressure;Samples;Min_cycle;Max_cycle;Signal;HPM_P1;HPM_P2
2023/12/25 00:01:19;;;;;;;1.23;0.70;;;;;;;;;;5117103;28;20463;-84
2023/12/25 00:03:45;;;;;;;0.60;0.60;;;;;;;;;;5116604;28;20931;-84
2023/12/25 00:06:11;;;;;;;0.90;0.85;;;;;;;;;;5117007;28;20453;-84
2023/12/25 00:08:37;;;;;;;2.03;0.88;;;;;;;;;;5116339;28;20463;-84
2023/12/25 00:11:03;;;;;;;1.48;0.80;;;;;;;;;;5116178;28;20411;-84
2023/12/25 00:13:29;;;;;;;3.85;2.75;;;;;;;;;;5116616;28;20412;-84
2023/12/25 00:15:55;;;;;;;1.50;0.80;;;;;;;;;;5116925;28;20381;-84
2023/12/25 00:18:21;;;;;;;1.10;0.93;;;;;;;;;;5116302;28;20842;-82
2023/12/25 00:20:47;;;;;;;1.02;0.80;;;;;;;;;;5117453;28;20485;-84
2023/12/25 00:23:13;;;;;;;1.45;1.20;;;;;;;;;;5116928;28;20376;-84
2023/12/25 00:25:39;;;;;;;1.70;1.05;;;;;;;;;;5098773;28;20435;-84
2023/12/25 00:28:05;;;;;;;1.88;0.90;;;;;;;;;;5117501;28;20496;-84
2023/12/25 00:30:31;;;;;;;1.30;0.95;;;;;;;;;;5116588;28;20456;-84
2023/12/25 00:32:57;;;;;;;0.90;0.80;;;;;;;;;;5116400;28;20460;-84
2023/12/25 00:35:24;;;;;;;1.00;0.90;;;;;;;;;;5116438;28;20383;-84
2023/12/25 00:37:50;;;;;;;0.82;0.75;;;;;;;;;;5116592;28;20431;-82
2023/12/25 00:40:16;;;;;;;1.05;0.90;;;;;;;;;;5116849;28;20398;-82
2023/12/25 00:42:42;;;;;;;1.15;0.77;;;;;;;;;;5117053;28;20798;-84
2023/12/25 00:45:08;;;;;;;2.03;0.80;;;;;;;;;;5116247;28;20381;-84
2023/12/25 00:47:34;;;;;;;0.95;0.73;;;;;;;;;;5115867;28;20975;-84
2023/12/25 00:50:00;;;;;;;1.08;0.80;;;;;;;;;;5115907;28;20444;-84
2023/12/25 00:52:26;;;;;;;1.00;0.90;;;;;;;;;;5116238;28;20424;-84
2023/12/25 00:54:52;;;;;;;0.50;0.50;;;;;;;;;;5115997;28;20936;-84
2023/12/25 00:57:18;;;;;;;0.73;0.70;;;;;;;;;;5115575;28;20414;-84
2023/12/25 00:59:43;;;;;;;1.03;0.60;;;;;;;;;;5116082;28;20433;-84
2023/12/25 01:02:09;;;;;;;0.63;0.52;;;;;;;;;;5114701;28;20412;-84
2023/12/25 01:04:35;;;;;;;1.20;0.50;;;;;;;;;;5116491;28;20369;-84
2023/12/25 01:07:01;;;;;;;0.50;0.40;;;;;;;;;;5116540;28;20846;-84
2023/12/25 01:09:27;;;;;;;1.00;0.60;;;;;;;;;;5116594;28;20408;-84
2023/12/25 01:11:53;;;;;;;1.20;0.60;;;;;;;;;;5116405;28;20383;-84
2023/12/25 01:14:19;;;;;;;0.70;0.70;;;;;;;;;;5115754;28;20379;-84
2023/12/25 01:16:45;;;;;;;0.90;0.60;;;;;;;;;;5115715;28;20722;-84
2023/12/25 01:19:12;;;;;;;0.60;0.50;;;;;;;;;;5116263;28;20380;-84
2023/12/25 01:21:38;;;;;;;0.50;0.40;;;;;;;;;;5116014;28;20380;-84
2023/12/25 01:24:04;;;;;;;0.88;0.50;;;;;;;;;;5114871;28;20381;-84
2023/12/25 01:26:30;;;;;;;0.80;0.40;;;;;;;;;;5097324;28;20384;-84
2023/12/25 01:28:56;;;;;;;0.90;0.50;;;;;;;;;;5115663;28;20463;-84
2023/12/25 01:31:23;;;;;;;1.00;0.50;;;;;;;;;;5113211;28;20948;-84
2023/12/25 01:33:49;;;;;;;0.90;0.50;;;;;;;;;;5094799;28;20393;-84
2023/12/25 01:36:15;;;;;;;0.85;0.50;;;;;;;;;;5114910;28;20435;-84
2023/12/25 01:38:41;;;;;;;0.45;0.40;;;;;;;;;;5116454;28;20373;-84
2023/12/25 01:41:07;;;;;;;0.60;0.50;;;;;;;;;;5115987;28;20388;-84
2023/12/25 01:43:33;;;;;;;0.80;0.50;;;;;;;;;;5115993;28;20376;-84
2023/12/25 01:45:59;;;;;;;0.70;0.60;;;;;;;;;;5116049;28;20429;-84
2023/12/25 01:48:25;;;;;;;0.57;0.40;;;;;;;;;;5118716;28;20412;-84
2023/12/25 01:50:52;;;;;;;1.42;0.65;;;;;;;;;;5118766;28;20429;-84
2023/12/25 01:53:19;;;;;;;1.60;0.75;;;;;;;;;;5120088;28;20472;-84
2023/12/25 01:55:45;;;;;;;1.80;1.20;;;;;;;;;;5119846;28;20371;-84
2023/12/25 01:58:11;;;;;;;1.00;0.90;;;;;;;;;;5119949;28;20368;-83
2023/12/25 02:00:37;;;;;;;0.50;0.50;;;;;;;;;;5120068;28;20368;-82
2023/12/25 02:03:03;;;;;;;0.90;0.70;;;;;;;;;;5119473;28;20383;-82
2023/12/25 02:05:29;;;;;;;0.80;0.70;;;;;;;;;;5119445;28;20944;-82
2023/12/25 02:07:55;;;;;;;0.80;0.80;;;;;;;;;;5119216;28;20822;-82
2023/12/25 02:10:28;;;;;;;1.00;0.70;;;;;;;;;;5119403;28;20403;-82
2023/12/25 02:12:54;;;;;;;0.63;0.55;;;;;;;;;;5120198;28;20377;-82
2023/12/25 02:15:20;;;;;;;0.60;0.50;;;;;;;;;;5119712;28;20376;-82
2023/12/25 02:17:46;;;;;;;1.75;1.10;;;;;;;;;;5119970;28;20392;-82
2023/12/25 02:20:13;;;;;;;0.90;0.67;;;;;;;;;;5120092;28;20818;-82
2023/12/25 02:22:39;;;;;;;1.08;0.43;;;;;;;;;;5119945;28;20372;-82
2023/12/25 02:25:10;;;;;;;1.30;0.60;;;;;;;;;;5120060;28;20415;-82
2023/12/25 02:27:36;;;;;;;0.63;0.40;;;;;;;;;;5119249;28;20776;-82
2023/12/25 02:30:02;;;;;;;0.52;0.50;;;;;;;;;;5119470;28;20401;-82
2023/12/25 02:32:31;;;;;;;0.50;0.50;;;;;;;;;;5119395;28;20404;-82
2023/12/25 02:34:57;;;;;;;1.40;0.60;;;;;;;;;;5119615;28;20380;-82
2023/12/25 02:37:23;;;;;;;0.52;0.50;;;;;;;;;;5118964;28;20375;-82
2023/12/25 02:39:49;;;;;;;0.40;0.40;;;;;;;;;;5119316;28;20420;-82
2023/12/25 02:42:15;;;;;;;0.50;0.45;;;;;;;;;;5119525;28;20467;-82
2023/12/25 02:44:41;;;;;;;1.48;0.50;;;;;;;;;;5118926;28;20379;-82
2023/12/25 02:47:07;;;;;;;1.00;0.50;;;;;;;;;;5118639;28;20462;-82
2023/12/25 02:49:33;;;;;;;0.55;0.45;;;;;;;;;;5118667;28;20432;-82
2023/12/25 02:51:59;;;;;;;0.95;0.50;;;;;;;;;;5112248;28;20384;-82
2023/12/25 02:54:25;;;;;;;1.30;0.68;;;;;;;;;;5111796;28;20369;-82
2023/12/25 02:56:51;;;;;;;1.50;0.70;;;;;;;;;;5118570;28;20408;-82
2023/12/25 02:59:17;;;;;;;0.45;0.40;;;;;;;;;;5118439;28;20395;-82
2023/12/25 03:01:43;;;;;;;0.60;0.50;;;;;;;;;;5119306;28;20379;-82
2023/12/25 03:04:09;;;;;;;0.80;0.50;;;;;;;;;;5118772;28;20721;-82
2023/12/25 03:06:35;;;;;;;2.08;0.60;;;;;;;;;;5118704;28;20394;-84
2023/12/25 03:09:01;;;;;;;1.33;0.52;;;;;;;;;;5118347;28;20976;-82
2023/12/25 03:11:27;;;;;;;0.52;0.50;;;;;;;;;;5118863;28;20408;-84
2023/12/25 03:13:53;;;;;;;2.72;0.50;;;;;;;;;;5118821;28;20395;-84
2023/12/25 03:16:19;;;;;;;1.23;0.50;;;;;;;;;;5118573;28;20377;-84
2023/12/25 03:18:45;;;;;;;1.27;0.50;;;;;;;;;;5118379;28;20368;-84
2023/12/25 03:21:11;;;;;;;1.50;0.50;;;;;;;;;;5118920;28;20772;-84
2023/12/25 03:23:37;;;;;;;1.67;0.50;;;;;;;;;;5118366;28;20369;-82
2023/12/25 03:26:05;;;;;;;0.82;0.60;;;;;;;;;;5118184;28;20408;-82
2023/12/25 03:28:31;;;;;;;1.70;0.50;;;;;;;;;;5118526;28;20380;-82
2023/12/25 03:30:57;;;;;;;1.70;0.80;;;;;;;;;;5118940;28;20756;-82
2023/12/25 03:33:22;;;;;;;0.80;0.70;;;;;;;;;;5119067;28;20379;-82
2023/12/25 03:35:48;;;;;;;0.77;0.60;;;;;;;;;;5109828;28;20378;-82
2023/12/25 03:38:15;;;;;;;0.67;0.47;;;;;;;;;;5098580;28;20465;-82
2023/12/25 03:40:41;;;;;;;1.90;0.60;;;;;;;;;;5117477;28;20464;-82
2023/12/25 03:43:07;;;;;;;0.68;0.40;;;;;;;;;;5118336;28;20782;-82
2023/12/25 03:45:32;;;;;;;0.57;0.37;;;;;;;;;;5118098;28;20404;-82
2023/12/25 03:47:58;;;;;;;1.30;0.50;;;;;;;;;;5117339;28;20878;-82
2023/12/25 03:50:25;;;;;;;0.57;0.40;;;;;;;;;;5117323;28;20416;-82
2023/12/25 03:52:51;;;;;;;0.35;0.35;;;;;;;;;;5117237;28;20447;-82
2023/12/25 03:55:17;;;;;;;0.60;0.40;;;;;;;;;;5118045;28;20376;-82
2023/12/25 03:57:43;;;;;;;0.50;0.40;;;;;;;;;;5117376;28;20433;-82
2023/12/25 04:00:09;;;;;;;0.50;0.40;;;;;;;;;;5118065;28;20702;-82
2023/12/25 04:02:35;;;;;;;0.80;0.40;;;;;;;;;;5117959;28;20372;-82
2023/12/25 04:05:02;;;;;;;0.80;0.40;;;;;;;;;;5117041;28;20933;-82
2023/12/25 04:07:28;;;;;;;0.90;0.35;;;;;;;;;;5117230;28;20368;-82
2023/12/25 04:09:54;;;;;;;0.30;0.30;;;;;;;;;;5117128;28;20872;-82
2023/12/25 04:12:20;;;;;;;0.43;0.30;;;;;;;;;;5117458;28;20695;-82
2023/12/25 04:14:46;;;;;;;0.90;0.30;;;;;;;;;;5117226;28;20406;-82
2023/12/25 04:17:12;;;;;;;0.57;0.43;;;;;;;;;;5117396;28;20819;-82
2023/12/25 04:19:38;;;;;;;0.70;0.33;;;;;;;;;;5117614;28;20467;-82
2023/12/25 04:22:04;;;;;;;0.38;0.38;;;;;;;;;;5117988;28;20376;-82
2023/12/25 04:24:30;;;;;;;0.77;0.47;;;;;;;;;;5099690;28;20880;-82
2023/12/25 04:26:56;;;;;;;0.40;0.40;;;;;;;;;;5116932;28;20451;-82
2023/12/25 04:29:22;;;;;;;0.40;0.30;;;;;;;;;;5118113;28;20419;-82
2023/12/25 04:31:51;;;;;;;0.50;0.47;;;;;;;;;;5117346;28;20369;-82
2023/12/25 04:34:17;;;;;;;0.90;0.60;;;;;;;;;;5117245;28;20392;-82
2023/12/25 04:36:43;;;;;;;0.75;0.50;;;;;;;;;;5117598;28;20376;-82
2023/12/25 04:39:09;;;;;;;0.35;0.35;;;;;;;;;;5117277;28;20845;-82
2023/12/25 04:41:35;;;;;;;0.57;0.40;;;;;;;;;;5117247;28;20399;-82
2023/12/25 04:44:01;;;;;;;1.30;0.50;;;;;;;;;;5117151;28;20373;-82
2023/12/25 04:46:27;;;;;;;0.50;0.30;;;;;;;;;;5117547;28;20485;-82
2023/12/25 04:48:53;;;;;;;0.60;0.40;;;;;;;;;;5117422;28;20421;-82
2023/12/25 04:51:19;;;;;;;1.38;0.40;;;;;;;;;;5117217;28;20385;-82
2023/12/25 04:53:45;;;;;;;1.02;0.40;;;;;;;;;;5116987;28;20451;-82
2023/12/25 04:56:11;;;;;;;0.88;0.40;;;;;;;;;;5116870;28;20846;-82
2023/12/25 04:58:38;;;;;;;0.98;0.43;;;;;;;;;;5117443;28;20372;-82
2023/12/25 05:01:04;;;;;;;0.90;0.40;;;;;;;;;;5117589;28;20842;-82
2023/12/25 05:03:30;;;;;;;0.68;0.50;;;;;;;;;;5117347;28;20368;-82
2023/12/25 05:05:56;;;;;;;0.52;0.40;;;;;;;;;;5117223;28;20388;-82
2023/12/25 05:08:23;;;;;;;0.35;0.35;;;;;;;;;;5116757;28;20456;-82
2023/12/25 05:10:49;;;;;;;0.75;0.40;;;;;;;;;;5116598;28;20400;-82
2023/12/25 05:13:15;;;;;;;2.20;0.52;;;;;;;;;;5117029;28;20372;-82
2023/12/25 05:15:41;;;;;;;1.00;0.50;;;;;;;;;;5111455;28;20493;-82
2023/12/25 05:18:10;;;;;;;2.55;0.60;;;;;;;;;;5095965;28;20378;-82
2023/12/25 05:20:36;;;;;;;1.08;0.60;;;;;;;;;;5097848;28;20904;-82
2023/12/25 05:23:02;;;;;;;0.60;0.45;;;;;;;;;;5101694;28;20465;-82
2023/12/25 05:25:27;;;;;;;0.50;0.50;;;;;;;;;;5102164;28;20847;-82
2023/12/25 05:27:53;;;;;;;0.90;0.60;;;;;;;;;;5101103;28;20390;-82
2023/12/25 05:30:19;;;;;;;0.90;0.70;;;;;;;;;;5101083;28;20424;-82
2023/12/25 05:32:45;;;;;;;2.30;0.80;;;;;;;;;;5101047;28;20370;-82
2023/12/25 05:35:11;;;;;;;0.70;0.60;;;;;;;;;;5100321;28;20375;-82
2023/12/25 05:37:37;;;;;;;0.50;0.50;;;;;;;;;;5100185;28;20374;-82
2023/12/25 05:40:04;;;;;;;0.90;0.65;;;;;;;;;;5113726;28;20384;-82
2023/12/25 05:42:30;;;;;;;1.40;0.60;;;;;;;;;;5112550;28;20385;-82
2023/12/25 05:44:56;;;;;;;1.90;0.90;;;;;;;;;;5099585;28;20423;-82
2023/12/25 05:47:22;;;;;;;1.55;1.23;;;;;;;;;;5099570;28;20472;-82
2023/12/25 05:49:48;;;;;;;1.30;0.88;;;;;;;;;;5099647;28;20413;-82
2023/12/25 05:52:14;;;;;;;1.33;0.98;;;;;;;;;;5099814;28;20373;-82
2023/12/25 05:54:41;;;;;;;1.25;0.82;;;;;;;;;;5100090;28;20716;-82
2023/12/25 05:57:07;;;;;;;0.80;0.70;;;;;;;;;;5099245;28;20381;-82
2023/12/25 05:59:32;;;;;;;1.52;0.90;;;;;;;;;;5099942;28;20472;-82
2023/12/25 06:01:58;;;;;;;1.08;0.70;;;;;;;;;;5099459;28;20439;-82
2023/12/25 06:04:24;;;;;;;0.85;0.80;;;;;;;;;;5099859;28;20389;-82
2023/12/25 06:06:53;;;;;;;1.33;0.70;;;;;;;;;;5099644;28;20433;-82
2023/12/25 06:09:19;;;;;;;1.08;0.60;;;;;;;;;;5099871;28;20409;-82
2023/12/25 06:11:45;;;;;;;1.05;0.70;;;;;;;;;;5099506;28;20461;-82
2023/12/25 06:14:11;;;;;;;0.93;0.70;;;;;;;;;;5099614;28;20993;-82
2023/12/25 06:16:37;;;;;;;0.70;0.70;;;;;;;;;;5099451;28;20384;-82
2023/12/25 06:19:03;;;;;;;1.00;0.90;;;;;;;;;;5111685;28;20464;-82
2023/12/25 06:21:29;;;;;;;1.30;0.80;;;;;;;;;;5120217;28;20802;-82
2023/12/25 06:23:56;;;;;;;1.50;0.80;;;;;;;;;;5119507;28;20380;-82
2023/12/25 06:26:22;;;;;;;0.60;0.55;;;;;;;;;;5120027;28;20437;-82
2023/12/25 06:28:48;;;;;;;0.63;0.63;;;;;;;;;;5119493;28;20408;-82
2023/12/25 06:31:14;;;;;;;0.93;0.60;;;;;;;;;;5120207;28;20383;-82
2023/12/25 06:33:40;;;;;;;0.60;0.50;;;;;;;;;;5118701;28;20380;-82
2023/12/25 06:36:07;;;;;;;0.70;0.50;;;;;;;;;;5119596;28;20498;-82
2023/12/25 06:38:32;;;;;;;0.82;0.50;;;;;;;;;;5119483;28;20410;-82
2023/12/25 06:40:58;;;;;;;0.50;0.50;;;;;;;;;;5119199;28;20425;-82
2023/12/25 06:43:24;;;;;;;1.20;0.70;;;;;;;;;;5119302;28;20383;-82
2023/12/25 06:45:50;;;;;;;0.70;0.60;;;;;;;;;;5119370;28;20842;-82
2023/12/25 06:48:16;;;;;;;1.13;0.60;;;;;;;;;;5119426;28;20400;-82
2023/12/25 06:50:42;;;;;;;1.70;0.63;;;;;;;;;;5119411;28;20483;-82
2023/12/25 06:53:08;;;;;;;1.35;0.70;;;;;;;;;;5119586;28;20856;-82
2023/12/25 06:55:34;;;;;;;0.82;0.40;;;;;;;;;;5119229;28;20425;-82
2023/12/25 06:58:01;;;;;;;0.52;0.40;;;;;;;;;;5118959;28;20746;-82
2023/12/25 07:00:27;;;;;;;0.38;0.38;;;;;;;;;;5118554;28;20381;-83
2023/12/25 07:02:53;;;;;;;1.60;0.50;;;;;;;;;;5120334;28;20395;-83
2023/12/25 07:05:19;;;;;;;0.60;0.52;;;;;;;;;;5118722;28;20388;-84
2023/12/25 07:07:45;;;;;;;0.60;0.50;;;;;;;;;;5118974;28;20393;-82
2023/12/25 07:10:11;;;;;;;1.70;0.50;;;;;;;;;;5118520;28;20895;-82
2023/12/25 07:12:38;;;;;;;0.60;0.60;;;;;;;;;;5118852;28;20376;-82
2023/12/25 07:15:04;;;;;;;0.77;0.40;;;;;;;;;;5118921;28;20400;-82
2023/12/25 07:17:32;;;;;;;0.57;0.50;;;;;;;;;;5118987;28;20402;-85
2023/12/25 07:19:58;;;;;;;0.68;0.55;;;;;;;;;;5118939;28;20376;-82
2023/12/25 07:22:24;;;;;;;0.40;0.40;;;;;;;;;;5118955;28;21164;-83
2023/12/25 07:24:51;;;;;;;0.93;0.47;;;;;;;;;;5119266;28;20400;-83
2023/12/25 07:27:17;;;;;;;1.13;0.50;;;;;;;;;;5119098;28;20376;-83
2023/12/25 07:29:43;;;;;;;0.65;0.50;;;;;;;;;;5117631;28;20406;-82
2023/12/25 07:32:10;;;;;;;0.80;0.50;;;;;;;;;;5118838;28;20381;-82
2023/12/25 07:34:36;;;;;;;0.45;0.40;;;;;;;;;;5118529;28;20373;-82
2023/12/25 07:37:03;;;;;;;0.70;0.50;;;;;;;;;;5118089;28;20369;-83
2023/12/25 07:39:29;;;;;;;1.47;0.60;;;;;;;;;;5112572;28;20456;-82
2023/12/25 07:41:55;;;;;;;0.65;0.43;;;;;;;;;;5098604;28;20429;-82
2023/12/25 07:44:21;;;;;;;0.40;0.40;;;;;;;;;;5098945;28;20826;-83
2023/12/25 07:46:47;;;;;;;0.40;0.40;;;;;;;;;;5098337;28;20508;-83
2023/12/25 07:49:14;;;;;;;0.82;0.43;;;;;;;;;;5097558;28;20441;-82
2023/12/25 07:51:39;;;;;;;0.82;0.50;;;;;;;;;;5098410;28;20372;-83
2023/12/25 07:54:05;;;;;;;1.75;0.50;;;;;;;;;;5098635;28;20380;-83
2023/12/25 07:56:31;;;;;;;0.68;0.50;;;;;;;;;;5098747;28;20370;-83
2023/12/25 07:58:58;;;;;;;1.30;0.98;;;;;;;;;;5098662;28;20743;-83
2023/12/25 08:01:24;;;;;;;0.73;0.50;;;;;;;;;;5098536;28;20374;-83
2023/12/25 08:03:50;;;;;;;0.80;0.50;;;;;;;;;;5098556;28;20382;-83
2023/12/25 08:06:16;;;;;;;1.67;0.60;;;;;;;;;;5098381;28;20393;-83
2023/12/25 08:08:44;;;;;;;1.15;0.75;;;;;;;;;;5097907;28;20397;-83
2023/12/25 08:11:12;;;;;;;0.80;0.50;;;;;;;;;;5097493;28;20382;-83
2023/12/25 08:13:38;;;;;;;1.02;0.90;;;;;;;;;;5097585;28;20405;-83
2023/12/25 08:16:04;;;;;;;0.70;0.60;;;;;;;;;;5097908;28;20412;-83
2023/12/25 08:18:31;;;;;;;0.80;0.60;;;;;;;;;;5098063;28;20824;-83
2023/12/25 08:20:57;;;;;;;1.05;0.60;;;;;;;;;;5118755;28;20380;-83
2023/12/25 08:23:23;;;;;;;0.90;0.80;;;;;;;;;;5117473;28;20388;-83
2023/12/25 08:25:49;;;;;;;0.85;0.60;;;;;;;;;;5118771;28;20425;-83
2023/12/25 08:28:15;;;;;;;0.70;0.60;;;;;;;;;;5117892;28;20436;-83
2023/12/25 08:30:41;;;;;;;1.00;0.68;;;;;;;;;;5117803;28;20460;-83
2023/12/25 08:33:08;;;;;;;0.60;0.60;;;;;;;;;;5100496;28;20927;-83
2023/12/25 08:35:34;;;;;;;1.23;0.70;;;;;;;;;;5118396;28;20842;-83
2023/12/25 08:38:00;;;;;;;1.10;0.60;;;;;;;;;;5118259;28;20429;-83
2023/12/25 08:40:26;;;;;;;0.70;0.50;;;;;;;;;;5118209;28;20384;-83
2023/12/25 08:42:52;;;;;;;1.00;0.70;;;;;;;;;;5118203;28;20372;-83
2023/12/25 08:45:18;;;;;;;1.20;0.60;;;;;;;;;;5118583;28;20380;-83
2023/12/25 08:47:44;;;;;;;0.90;0.50;;;;;;;;;;5116845;28;20816;-83
2023/12/25 08:50:10;;;;;;;0.77;0.50;;;;;;;;;;5117239;28;20408;-83
2023/12/25 08:52:36;;;;;;;0.90;0.55;;;;;;;;;;5117764;28;20455;-83
2023/12/25 08:55:03;;;;;;;0.77;0.60;;;;;;;;;;5117478;28;20375;-83
2023/12/25 08:57:34;;;;;;;0.90;0.60;;;;;;;;;;5117031;28;20380;-83
2023/12/25 09:00:00;;;;;;;1.35;1.20;;;;;;;;;;5117271;28;20377;-83
2023/12/25 09:02:27;;;;;;;0.70;0.50;;;;;;;;;;5099607;28;20385;-83
2023/12/25 09:04:53;;;;;;;0.60;0.50;;;;;;;;;;5118203;28;20633;-83
2023/12/25 09:07:19;;;;;;;0.77;0.60;;;;;;;;;;5099194;28;20392;-83
2023/12/25 09:09:45;;;;;;;1.15;0.50;;;;;;;;;;5118220;28;20404;-83
2023/12/25 09:12:11;;;;;;;1.00;0.60;;;;;;;;;;5117929;28;20368;-83
2023/12/25 09:14:37;;;;;;;0.93;0.60;;;;;;;;;;5099488;28;20442;-83
2023/12/25 09:17:03;;;;;;;0.52;0.50;;;;;;;;;;5117737;28;20467;-83
2023/12/25 09:19:29;;;;;;;0.75;0.63;;;;;;;;;;5117639;28;20407;-83
2023/12/25 09:21:58;;;;;;;0.57;0.50;;;;;;;;;;5118409;28;20392;-83
2023/12/25 09:24:24;;;;;;;2.30;0.50;;;;;;;;;;5119553;28;20380;-83
2023/12/25 09:26:53;;;;;;;0.95;0.57;;;;;;;;;;5119041;28;20420;-83
2023/12/25 09:29:19;;;;;;;1.55;0.70;;;;;;;;;;5100957;28;20510;-83
2023/12/25 09:31:45;;;;;;;0.55;0.50;;;;;;;;;;5118935;28;20383;-83
2023/12/25 09:34:11;;;;;;;0.90;0.50;;;;;;;;;;5097893;28;20372;-83
2023/12/25 09:36:37;;;;;;;1.27;0.60;;;;;;;;;;5111151;28;20768;-84
2023/12/25 09:39:03;;;;;;;0.50;0.50;;;;;;;;;;5117279;28;20380;-84
2023/12/25 09:41:32;;;;;;;1.00;0.50;;;;;;;;;;5116855;28;20386;-84
2023/12/25 09:44:00;;;;;;;0.70;0.50;;;;;;;;;;5115422;28;20387;-84
2023/12/25 09:46:28;;;;;;;0.60;0.60;;;;;;;;;;5116848;28;20380;-84
2023/12/25 09:48:55;;;;;;;0.90;0.50;;;;;;;;;;5116366;28;20414;-84
2023/12/25 09:51:22;;;;;;;0.60;0.60;;;;;;;;;;5117411;28;20385;-84
2023/12/25 09:53:48;;;;;;;1.13;0.50;;;;;;;;;;5116872;28;20853;-84
2023/12/25 09:56:16;;;;;;;1.00;0.63;;;;;;;;;;5116682;28;20396;-84
2023/12/25 09:58:43;;;;;;;1.02;0.63;;;;;;;;;;5116772;28;20377;-84
2023/12/25 10:01:09;;;;;;;0.70;0.55;;;;;;;;;;5117008;28;20376;-84
2023/12/25 10:03:36;;;;;;;0.70;0.70;;;;;;;;;;5116753;28;20372;-84
2023/12/25 10:06:02;;;;;;;0.70;0.60;;;;;;;;;;5117066;28;20387;-84
2023/12/25 10:08:29;;;;;;;0.90;0.65;;;;;;;;;;5118124;28;20376;-84
2023/12/25 10:10:55;;;;;;;0.63;0.60;;;;;;;;;;5120516;28;20392;-84
2023/12/25 10:13:23;;;;;;;0.50;0.50;;;;;;;;;;5102624;28;20392;-84
2023/12/25 10:15:50;;;;;;;1.05;0.60;;;;;;;;;;5120161;28;20370;-84
2023/12/25 10:18:16;;;;;;;0.70;0.63;;;;;;;;;;5120495;28;20380;-83
2023/12/25 10:20:54;;;;;;;1.15;0.60;;;;;;;;;;5121030;28;20376;-83
2023/12/25 10:23:27;;;;;;;0.50;0.50;;;;;;;;;;5119707;28;20376;-83
2023/12/25 10:25:53;;;;;;;0.52;0.50;;;;;;;;;;5101942;28;20764;-83
2023/12/25 10:28:26;;;;;;;0.80;0.60;;;;;;;;;;5120592;28;20377;-84
2023/12/25 10:31:04;;;;;;;0.50;0.50;;;;;;;;;;5119988;28;20392;-83
2023/12/25 10:33:31;;;;;;;1.20;0.38;;;;;;;;;;5119976;28;20779;-83
2023/12/25 10:36:02;;;;;;;0.45;0.45;;;;;;;;;;5120126;28;20417;-83
2023/12/25 10:38:28;;;;;;;0.50;0.40;;;;;;;;;;5120552;28;20373;-84
2023/12/25 10:40:54;;;;;;;0.57;0.40;;;;;;;;;;5119562;28;20383;-84
2023/12/25 10:43:21;;;;;;;0.43;0.40;;;;;;;;;;5119883;28;20391;-84
2023/12/25 10:45:50;;;;;;;0.65;0.45;;;;;;;;;;5119396;28;20380;-84
2023/12/25 10:48:18;;;;;;;0.80;0.40;;;;;;;;;;5119344;28;20392;-84
2023/12/25 10:50:45;;;;;;;0.47;0.40;;;;;;;;;;5119920;28;20401;-84
2023/12/25 10:53:16;;;;;;;0.47;0.30;;;;;;;;;;5120059;28;20369;-84
2023/12/25 10:55:43;;;;;;;0.68;0.40;;;;;;;;;;5120515;28;20376;-83
2023/12/25 10:58:11;;;;;;;0.60;0.40;;;;;;;;;;5119660;28;21257;-83
2023/12/25 11:00:39;;;;;;;0.65;0.50;;;;;;;;;;5120137;28;20509;-84
2023/12/25 11:03:05;;;;;;;1.45;0.63;;;;;;;;;;5119644;28;20380;-84
2023/12/25 11:05:32;;;;;;;0.60;0.40;;;;;;;;;;5120083;28;20395;-84
2023/12/25 11:07:58;;;;;;;1.35;0.60;;;;;;;;;;5101175;28;20714;-84
2023/12/25 11:10:27;;;;;;;1.10;0.50;;;;;;;;;;5118992;28;21235;-84
2023/12/25 11:12:54;;;;;;;0.95;0.60;;;;;;;;;;5120713;28;20467;-84
2023/12/25 11:15:20;;;;;;;0.65;0.50;;;;;;;;;;5120473;28;20369;-83
2023/12/25 11:17:46;;;;;;;1.17;0.73;;;;;;;;;;5119871;28;20508;-84
2023/12/25 11:20:12;;;;;;;0.85;0.70;;;;;;;;;;5119846;28;20384;-84
2023/12/25 11:22:44;;;;;;;1.15;0.60;;;;;;;;;;5118593;28;20368;-84
2023/12/25 11:25:15;;;;;;;0.70;0.50;;;;;;;;;;5118594;28;20721;-84
2023/12/25 11:27:42;;;;;;;0.93;0.80;;;;;;;;;;5118229;28;20459;-84
2023/12/25 11:30:09;;;;;;;1.20;0.73;;;;;;;;;;5118117;28;20399;-84
2023/12/25 11:32:36;;;;;;;0.90;0.50;;;;;;;;;;5117485;28;20789;-84
2023/12/25 11:35:03;;;;;;;0.80;0.60;;;;;;;;;;5118429;28;20369;-84
2023/12/25 11:37:29;;;;;;;0.65;0.60;;;;;;;;;;5117516;28;20372;-84
2023/12/25 11:40:05;;;;;;;1.10;0.77;;;;;;;;;;5117733;28;20376;-84
2023/12/25 11:42:31;;;;;;;0.73;0.57;;;;;;;;;;5118439;28;20459;-84
2023/12/25 11:45:09;;;;;;;1.13;0.55;;;;;;;;;;5114579;28;20376;-84
2023/12/25 11:47:39;;;;;;;0.80;0.50;;;;;;;;;;5117280;28;20396;-81
2023/12/25 11:50:05;;;;;;;1.63;0.60;;;;;;;;;;5116930;28;20408;-84
2023/12/25 11:52:46;;;;;;;1.02;0.80;;;;;;;;;;5119244;28;20757;-84
2023/12/25 11:55:23;;;;;;;1.50;0.80;;;;;;;;;;5117448;28;20364;-84
2023/12/25 11:57:52;;;;;;;1.25;0.60;;;;;;;;;;5117141;28;20435;-84
2023/12/25 12:00:22;;;;;;;1.15;0.60;;;;;;;;;;5098621;28;20396;-83
2023/12/25 12:02:48;;;;;;;1.02;0.50;;;;;;;;;;5117625;28;20379;-84
2023/12/25 12:05:14;;;;;;;1.13;0.60;;;;;;;;;;5099673;28;20383;-84
2023/12/25 12:07:41;;;;;;;0.40;0.40;;;;;;;;;;5117555;28;20384;-84
2023/12/25 12:10:07;;;;;;;0.80;0.38;;;;;;;;;;5117518;28;20742;-84
2023/12/25 12:12:33;;;;;;;0.63;0.52;;;;;;;;;;5117838;28;20373;-84
2023/12/25 12:15:00;;;;;;;1.60;0.60;;;;;;;;;;5117373;28;20383;-84
2023/12/25 12:17:26;;;;;;;0.98;0.50;;;;;;;;;;5116885;28;20447;-84
2023/12/25 12:19:52;;;;;;;1.25;0.50;;;;;;;;;;5117675;28;20383;-84
2023/12/25 12:22:18;;;;;;;1.65;0.70;;;;;;;;;;5098534;28;20388;-82
2023/12/25 12:24:45;;;;;;;0.70;0.55;;;;;;;;;;5116906;28;20394;-84
2023/12/25 12:27:11;;;;;;;0.40;0.40;;;;;;;;;;5116277;28;20376;-84
2023/12/25 12:29:40;;;;;;;1.05;0.50;;;;;;;;;;5117480;28;20460;-84
2023/12/25 12:32:07;;;;;;;0.90;0.50;;;;;;;;;;5116253;28;20480;-84
2023/12/25 12:34:33;;;;;;;1.92;0.40;;;;;;;;;;5116786;28;20369;-83
2023/12/25 12:36:59;;;;;;;1.00;0.60;;;;;;;;;;5116033;28;20433;-84
2023/12/25 12:39:28;;;;;;;1.42;0.60;;;;;;;;;;5116896;28;20468;-84
2023/12/25 12:41:54;;;;;;;0.82;0.55;;;;;;;;;;5117759;28;20387;-84
2023/12/25 12:44:20;;;;;;;1.17;0.60;;;;;;;;;;5116637;28;20958;-84
2023/12/25 12:46:46;;;;;;;0.70;0.50;;;;;;;;;;5116714;28;20415;-84
2023/12/25 12:49:14;;;;;;;0.80;0.50;;;;;;;;;;5118283;28;20451;-84
2023/12/25 12:51:42;;;;;;;0.95;0.50;;;;;;;;;;5116469;28;20452;-82
2023/12/25 12:54:08;;;;;;;0.85;0.50;;;;;;;;;;5117160;28;20384;-82
2023/12/25 12:56:33;;;;;;;0.70;0.60;;;;;;;;;;5116337;28;20387;-83
2023/12/25 12:59:00;;;;;;;0.70;0.50;;;;;;;;;;5098794;28;20425;-83
2023/12/25 13:01:29;;;;;;;0.90;0.30;;;;;;;;;;5116098;28;20734;-83
2023/12/25 13:03:55;;;;;;;1.02;0.40;;;;;;;;;;5116772;28;20600;-83
2023/12/25 13:06:21;;;;;;;1.40;0.50;;;;;;;;;;5116165;28;20384;-83
2023/12/25 13:08:49;;;;;;;0.45;0.32;;;;;;;;;;5116399;28;20374;-83
2023/12/25 13:11:18;;;;;;;0.85;0.60;;;;;;;;;;5115781;28;20379;-83
2023/12/25 13:13:44;;;;;;;0.80;0.50;;;;;;;;;;5115747;28;20431;-83
2023/12/25 13:16:10;;;;;;;1.02;0.50;;;;;;;;;;5115912;28;20788;-83
2023/12/25 13:18:36;;;;;;;0.60;0.43;;;;;;;;;;5116156;28;20372;-83
2023/12/25 13:21:02;;;;;;;0.73;0.60;;;;;;;;;;5104043;28;20439;-83
2023/12/25 13:23:28;;;;;;;1.33;0.50;;;;;;;;;;5095363;28;20378;-83
2023/12/25 13:25:54;;;;;;;1.10;0.40;;;;;;;;;;5096009;28;20385;-84
2023/12/25 13:28:20;;;;;;;1.83;0.50;;;;;;;;;;5095700;28;20382;-83
2023/12/25 13:30:46;;;;;;;0.88;0.40;;;;;;;;;;5077140;28;20755;-83
2023/12/25 13:33:12;;;;;;;1.30;0.60;;;;;;;;;;5095958;28;20457;-84
2023/12/25 13:35:38;;;;;;;0.90;0.60;;;;;;;;;;5095691;28;20869;-83
2023/12/25 13:38:05;;;;;;;2.70;0.60;;;;;;;;;;5094970;28;20382;-83
2023/12/25 13:40:31;;;;;;;0.90;0.70;;;;;;;;;;5096988;28;20378;-83
2023/12/25 13:42:57;;;;;;;1.02;0.60;;;;;;;;;;5117237;28;20380;-84
2023/12/25 13:45:23;;;;;;;1.30;0.52;;;;;;;;;;5119733;28;20459;-84
2023/12/25 13:47:49;;;;;;;0.88;0.60;;;;;;;;;;5119510;28;20408;-83
2023/12/25 13:50:15;;;;;;;1.10;0.57;;;;;;;;;;5110787;28;20406;-83
2023/12/25 13:52:41;;;;;;;0.82;0.80;;;;;;;;;;5099779;28;20374;-84
2023/12/25 13:55:07;;;;;;;1.33;0.80;;;;;;;;;;5099567;28;20401;-83
2023/12/25 13:57:33;;;;;;;1.52;0.80;;;;;;;;;;5099882;28;20385;-83
2023/12/25 13:59:59;;;;;;;0.90;0.80;;;;;;;;;;5099793;28;20954;-83
2023/12/25 14:02:25;;;;;;;1.17;0.63;;;;;;;;;;5099046;28;20378;-83
2023/12/25 14:04:52;;;;;;;1.50;1.20;;;;;;;;;;5099034;28;20373;-84
2023/12/25 14:07:18;;;;;;;1.60;0.70;;;;;;;;;;5099897;28;20863;-83
2023/12/25 14:09:45;;;;;;;1.52;0.90;;;;;;;;;;5099744;28;20413;-84
2023/12/25 14:12:11;;;;;;;0.88;0.70;;;;;;;;;;5099615;28;20370;-84
2023/12/25 14:14:37;;;;;;;1.67;0.95;;;;;;;;;;5098567;28;20390;-84
2023/12/25 14:17:03;;;;;;;1.05;0.52;;;;;;;;;;5098747;28;20373;-83
2023/12/25 14:19:29;;;;;;;0.88;0.60;;;;;;;;;;5098755;28;20736;-84
2023/12/25 14:21:55;;;;;;;0.80;0.43;;;;;;;;;;5116830;28;20395;-84
2023/12/25 14:24:21;;;;;;;1.00;0.50;;;;;;;;;;5119521;28;20383;-83
2023/12/25 14:26:47;;;;;;;0.90;0.50;;;;;;;;;;5119269;28;20373;-84
2023/12/25 14:29:14;;;;;;;0.82;0.50;;;;;;;;;;5118991;28;20742;-84
2023/12/25 14:31:40;;;;;;;1.10;0.70;;;;;;;;;;5118820;28;20404;-84
2023/12/25 14:34:06;;;;;;;2.08;1.05;;;;;;;;;;5119714;28;20379;-84
2023/12/25 14:36:32;;;;;;;1.30;0.83;;;;;;;;;;5119127;28;20386;-84
2023/12/25 14:39:00;;;;;;;1.02;0.75;;;;;;;;;;5118863;28;20373;-84